Time;durP1;ratioP1;P1;durP2;ratioP2;P2;SDS_P1;SDS_P2;PMS_P1;PMS_P2;Temp;Humidity;BMP_temperature;BMP_pressure;BME280_temperature;BME280_humidity;BME280_pressure;Samples;Min_cycle;Max_cycle;Signal;HPM_P1;HPM_P2
2024/04/18 00:00:00;;;;;;;;;;;;;;;2.48;72.97;99401.15;130379;1263;106477;-79
2024/04/18 00:03:04;;;;;;;;;;;;;;;2.46;73.04;99403.54;130340;1263;108433;-80
2024/04/18 00:06:08;;;;;;;;;;;;;;;2.46;72.80;99405.90;130443;1263;106294;-80
2024/04/18 00:09:12;;;;;;;;;;;;;;;2.43;72.93;99406.96;130614;1257;108973;-80
2024/04/18 00:12:15;;;;;;;;;;;;;;;2.40;72.75;99401.60;130371;1263;108599;-80
2024/04/18 00:15:22;;;;;;;;;;;;;;;2.32;72.74;99406.08;130299;1261;107860;-80
2024/04/18 00:18:31;;;;;;;;;;;;;;;2.26;72.73;99411.25;130324;1264;106218;-79
2024/04/18 00:21:55;;;;;;;;;;;;;;;2.20;72.82;99413.64;130283;1264;106750;-79
2024/04/18 00:25:06;;;;;;;;;;;;;;;2.12;72.58;99422.34;130357;1257;106981;-79
2024/04/18 00:28:29;;;;;;;;;;;;;;;1.97;72.30;99421.58;130454;1271;107036;-79
2024/04/18 00:31:51;;;;;;;;;;;;;;;1.89;72.56;99419.88;130594;1263;106709;-79
2024/04/18 00:35:10;;;;;;;;;;;;;;;1.85;72.64;99416.94;130640;1257;107846;-81
2024/04/18 00:38:14;;;;;;;;;;;;;;;1.80;72.62;99419.95;130360;1263;107793;-79
2024/04/18 00:41:18;;;;;;;;;;;;;;;1.71;72.55;99419.20;130344;1263;106404;-78
2024/04/18 00:44:34;;;;;;;;;;;;;;;1.66;72.60;99415.77;130335;1263;106648;-79
2024/04/18 00:47:50;;;;;;;;;;;;;;;1.62;72.69;99417.27;130309;1263;107713;-79
2024/04/18 00:50:56;;;;;;;;;;;;;;;1.58;72.75;99420.34;130336;1261;105516;-78
2024/04/18 00:53:59;;;;;;;;;;;;;;;1.55;72.63;99419.85;130331;1264;106800;-78
2024/04/18 00:57:03;;;;;;;;;;;;;;;1.52;72.35;99418.91;130383;1262;106819;-79
2024/04/18 01:00:08;;;;;;;;;;;;;;;1.40;71.92;99418.19;130234;1262;107452;-79
2024/04/18 01:03:30;;;;;;;;;;;;;;;1.31;72.55;99416.95;130261;1270;106711;-79
2024/04/18 01:06:43;;;;;;;;;;;;;;;1.23;72.26;99419.48;130337;1262;107188;-79
2024/04/18 01:09:53;;;;;;;;;;;;;;;1.16;72.54;99421.36;130329;1258;107411;-79
2024/04/18 01:12:57;;;;;;;;;;;;;;;1.15;72.51;99424.81;130406;1264;107756;-79
2024/04/18 01:16:20;;;;;;;;;;;;;;;1.12;72.42;99428.02;130368;1262;107587;-79
2024/04/18 01:19:24;;;;;;;;;;;;;;;1.09;72.29;99425.95;130263;1258;106413;-79
2024/04/18 01:22:28;;;;;;;;;;;;;;;1.04;72.06;99427.72;130102;1263;107511;-79
2024/04/18 01:25:32;;;;;;;;;;;;;;;0.90;71.89;99426.81;130267;1257;108929;-79
2024/04/18 01:28:35;;;;;;;;;;;;;;;0.87;72.40;99426.65;130426;1264;107532;-79
2024/04/18 01:31:39;;;;;;;;;;;;;;;0.88;72.37;99425.38;130515;1262;106441;-79
2024/04/18 01:34:43;;;;;;;;;;;;;;;0.89;72.39;99430.08;130519;1257;108813;-79
2024/04/18 01:37:53;;;;;;;;;;;;;;;0.87;72.23;99432.43;130424;1262;107699;-79
2024/04/18 01:40:57;;;;;;;;;;;;;;;0.81;72.42;99436.60;130439;1258;106083;-78
2024/04/18 01:44:20;;;;;;;;;;;;;;;0.77;72.42;99438.95;130410;1258;106102;-79
2024/04/18 01:47:59;;;;;;;;;;;;;;;0.76;72.52;99442.38;129810;1278;108836;-79
2024/04/18 01:51:17;;;;;;;;;;;;;;;0.75;72.32;99445.02;130435;1262;106983;-79
2024/04/18 01:54:21;;;;;;;;;;;;;;;0.68;71.87;99446.91;130311;1257;107683;-79
2024/04/18 01:57:34;;;;;;;;;;;;;;;0.63;72.20;99456.06;130298;1262;107626;-79
2024/04/18 02:00:56;;;;;;;;;;;;;;;0.61;72.08;99452.54;130385;1262;106955;-79
2024/04/18 02:04:00;;;;;;;;;;;;;;;0.60;72.30;99458.02;130357;1258;107734;-78
2024/04/18 02:07:03;;;;;;;;;;;;;;;0.57;72.31;99457.00;130404;1262;107684;-78
2024/04/18 02:10:08;;;;;;;;;;;;;;;0.56;72.21;99457.98;130433;1262;106995;-79
2024/04/18 02:13:34;;;;;;;;;;;;;;;0.54;72.30;99460.36;130337;1262;107678;-79
2024/04/18 02:16:38;;;;;;;;;;;;;;;0.52;72.35;99458.59;130388;1262;108092;-79
2024/04/18 02:20:00;;;;;;;;;;;;;;;0.52;72.38;99460.33;130332;1264;106421;-78
2024/04/18 02:23:22;;;;;;;;;;;;;;;0.53;72.03;99465.35;130415;1263;107557;-80
2024/04/18 02:26:25;;;;;;;;;;;;;;;0.49;72.16;99464.90;130607;1258;106326;-79
2024/04/18 02:29:29;;;;;;;;;;;;;;;0.47;72.12;99465.77;130436;1258;107244;-79
2024/04/18 02:32:36;;;;;;;;;;;;;;;0.46;72.06;99466.89;131171;1259;107503;-79
2024/04/18 02:35:40;;;;;;;;;;;;;;;0.42;72.18;99464.34;130658;1257;106962;-78
2024/04/18 02:38:43;;;;;;;;;;;;;;;0.42;72.23;99461.60;130926;1260;106214;-77
2024/04/18 02:41:47;;;;;;;;;;;;;;;0.41;72.00;99467.27;130395;1260;107923;-77
2024/04/18 02:45:03;;;;;;;;;;;;;;;0.33;72.17;99470.44;130360;1263;107728;-77
2024/04/18 02:48:26;;;;;;;;;;;;;;;0.23;71.37;99469.02;130644;1262;108699;-80
2024/04/18 02:51:30;;;;;;;;;;;;;;;0.08;71.62;99466.89;130789;1264;107059;-81
2024/04/18 02:54:49;;;;;;;;;;;;;;;0.07;72.21;99466.82;131966;1257;107152;-84
2024/04/18 02:57:53;;;;;;;;;;;;;;;0.08;72.29;99467.95;130656;1262;105990;-84
2024/04/18 03:00:57;;;;;;;;;;;;;;;0.11;72.32;99469.83;130482;1257;108579;-82
2024/04/18 03:04:15;;;;;;;;;;;;;;;0.13;72.49;99470.71;130473;1262;106240;-83
2024/04/18 03:07:19;;;;;;;;;;;;;;;0.14;72.21;99471.55;130489;1257;107390;-83
2024/04/18 03:10:25;;;;;;;;;;;;;;;0.10;72.08;99473.77;130534;1258;106731;-82
2024/04/18 03:13:38;;;;;;;;;;;;;;;0.10;72.46;99474.46;130608;1257;108727;-82
2024/04/18 03:17:02;;;;;;;;;;;;;;;0.14;72.37;99477.35;130630;1257;107644;-83
2024/04/18 03:20:25;;;;;;;;;;;;;;;0.13;72.37;99475.67;130733;1257;107466;-82
2024/04/18 03:23:44;;;;;;;;;;;;;;;0.13;72.46;99482.09;130564;1264;107527;-83
2024/04/18 03:27:08;;;;;;;;;;;;;;;0.16;72.31;99477.35;130599;1257;106622;-82
2024/04/18 03:30:12;;;;;;;;;;;;;;;0.18;72.46;99478.96;130545;1259;106505;-82
2024/04/18 03:33:35;;;;;;;;;;;;;;;0.23;72.45;99480.22;130691;1262;106761;-82
2024/04/18 03:36:41;;;;;;;;;;;;;;;0.29;72.39;99479.25;130660;1264;106985;-82
2024/04/18 03:40:06;;;;;;;;;;;;;;;0.37;72.45;99480.82;130668;1258;107480;-82
2024/04/18 03:43:09;;;;;;;;;;;;;;;0.44;72.65;99481.88;130482;1262;106040;-82
2024/04/18 03:46:13;;;;;;;;;;;;;;;0.52;72.44;99480.29;130436;1263;108970;-82
2024/04/18 03:49:35;;;;;;;;;;;;;;;0.61;72.78;99481.20;130501;1262;107580;-81
2024/04/18 03:52:39;;;;;;;;;;;;;;;0.70;72.83;99483.70;130566;1262;107552;-82
2024/04/18 03:56:02;;;;;;;;;;;;;;;0.81;73.03;99482.27;130470;1262;106671;-82
2024/04/18 03:59:06;;;;;;;;;;;;;;;0.90;73.06;99490.23;130567;1257;108689;-81
2024/04/18 04:02:09;;;;;;;;;;;;;;;0.96;73.08;99496.05;130405;1257;108692;-80
2024/04/18 04:05:13;;;;;;;;;;;;;;;1.02;73.37;99500.88;130585;1262;107701;-81
2024/04/18 04:08:17;;;;;;;;;;;;;;;1.08;73.44;99497.86;130500;1257;108783;-81
2024/04/18 04:11:21;;;;;;;;;;;;;;;1.17;73.66;99495.63;130584;1262;107727;-81
2024/04/18 04:14:24;;;;;;;;;;;;;;;1.27;73.65;99494.67;130570;1262;107244;-81
2024/04/18 04:17:36;;;;;;;;;;;;;;;1.42;73.82;99499.52;130608;1260;106331;-81
2024/04/18 04:20:43;;;;;;;;;;;;;;;1.58;73.94;99503.14;130806;1258;106678;-80
2024/04/18 04:23:47;;;;;;;;;;;;;;;1.72;74.19;99506.10;130887;1256;106872;-80
2024/04/18 04:26:51;;;;;;;;;;;;;;;1.93;74.39;99508.77;130585;1261;108513;-80
2024/04/18 04:29:56;;;;;;;;;;;;;;;2.19;74.53;99510.60;130341;1262;108601;-79
2024/04/18 04:32:59;;;;;;;;;;;;;;;2.58;74.65;99515.31;130665;1258;106752;-80
2024/04/18 04:36:09;;;;;;;;;;;;;;;3.01;75.00;99516.52;130373;1261;106968;-80
2024/04/18 04:39:13;;;;;;;;;;;;;;;3.39;75.04;99516.45;130424;1262;107159;-81
2024/04/18 04:42:17;;;;;;;;;;;;;;;3.69;75.49;99512.01;130599;1256;107721;-81
2024/04/18 04:45:21;;;;;;;;;;;;;;;3.94;75.63;99513.61;130547;1258;107188;-81
2024/04/18 04:48:41;;;;;;;;;;;;;;;4.07;75.87;99515.75;130648;1261;108578;-81
2024/04/18 04:51:48;;;;;;;;;;;;;;;4.04;75.96;99518.96;130601;1260;106418;-81
2024/04/18 04:55:11;;;;;;;;;;;;;;;3.92;76.54;99519.05;130675;1259;106629;-81
2024/04/18 04:58:15;;;;;;;;;;;;;;;3.89;76.53;99524.05;130654;1260;108805;-81
2024/04/18 05:01:21;;;;;;;;;;;;;;;3.86;76.84;99520.33;130631;1259;106919;-81
2024/04/18 05:04:32;;;;;;;;;;;;;;;3.77;77.30;99523.85;130457;1257;106820;-83
2024/04/18 05:07:36;;;;;;;;;;;;;;;3.69;77.83;99525.79;130632;1257;106145;-72
2024/04/18 05:10:59;;;;;;;;;;;;;;;3.56;78.01;99527.88;130423;1262;106683;-73
2024/04/18 05:14:02;;;;;;;;;;;;;;;3.50;78.27;99534.16;130392;1263;106387;-73
2024/04/18 05:17:25;;;;;;;;;;;;;;;3.53;78.52;99529.72;130367;1262;108474;-73
2024/04/18 05:20:48;;;;;;;;;;;;;;;3.65;79.40;99527.84;130420;1257;107626;-73
2024/04/18 05:23:51;;;;;;;;;;;;;;;3.69;79.91;99530.45;130255;1263;108715;-73
2024/04/18 05:26:55;;;;;;;;;;;;;;;3.78;79.32;99530.30;130366;1257;107040;-73
2024/04/18 05:33:20;;;;;;;;;;;;;;;3.95;79.30;99527.25;130092;1262;107995;-73
2024/04/18 05:36:24;;;;;;;;;;;;;;;4.05;79.59;99522.05;130312;1258;109432;-73
2024/04/18 05:39:28;;;;;;;;;;;;;;;4.06;79.02;99521.44;130289;1262;107424;-73
2024/04/18 05:42:31;;;;;;;;;;;;;;;4.05;80.22;99516.76;130287;1262;108509;-73
2024/04/18 05:45:45;;;;;;;;;;;;;;;4.03;80.16;99519.56;130300;1262;109136;-75
2024/04/18 05:48:49;;;;;;;;;;;;;;;4.01;80.47;99518.35;130367;1262;106971;-72
2024/04/18 05:51:52;;;;;;;;;;;;;;;4.01;80.33;99523.48;130418;1259;109137;-73
2024/04/18 05:55:08;;;;;;;;;;;;;;;4.06;80.77;99524.41;130063;1262;108764;-73
2024/04/18 05:58:16;;;;;;;;;;;;;;;4.27;80.61;99522.11;130256;1259;108713;-72
2024/04/18 06:01:32;;;;;;;;;;;;;;;4.45;80.68;99525.36;130035;1262;107392;-73
2024/04/18 06:04:36;;;;;;;;;;;;;;;4.57;80.90;99521.52;130277;1262;108402;-72
2024/04/18 06:07:59;;;;;;;;;;;;;;;4.56;80.96;99521.72;130088;1263;108475;-72
2024/04/18 06:11:03;;;;;;;;;;;;;;;4.45;80.51;99524.45;130361;1262;107649;-73
2024/04/18 06:14:06;;;;;;;;;;;;;;;4.41;80.78;99523.19;130368;1262;106617;-73
2024/04/18 06:17:10;;;;;;;;;;;;;;;4.47;80.97;99522.48;130387;1262;106780;-72
2024/04/18 06:20:27;;;;;;;;;;;;;;;4.70;80.99;99523.03;130317;1257;109120;-73
2024/04/18 06:23:30;;;;;;;;;;;;;;;4.88;80.85;99522.17;130287;1262;108798;-72
2024/04/18 06:26:53;;;;;;;;;;;;;;;4.95;80.60;99523.30;130289;1258;108689;-73
2024/04/18 06:29:56;;;;;;;;;;;;;;;4.98;80.37;99519.86;130299;1262;109027;-72
2024/04/18 06:33:00;;;;;;;;;;;;;;;4.96;80.67;99522.36;130099;1262;108153;-72
2024/04/18 06:36:05;;;;;;;;;;;;;;;5.00;80.58;99522.88;130319;1262;108526;-72
2024/04/18 06:39:09;;;;;;;;;;;;;;;5.16;80.61;99521.48;130387;1257;106531;-73
2024/04/18 06:42:12;;;;;;;;;;;;;;;5.36;80.15;99527.81;130413;1258;106748;-71
2024/04/18 06:45:17;;;;;;;;;;;;;;;5.48;80.62;99533.79;130416;1262;107628;-73
2024/04/18 06:48:21;;;;;;;;;;;;;;;5.47;79.65;99538.23;130435;1258;108790;-73
2024/04/18 06:51:25;;;;;;;;;;;;;;;5.40;79.98;99544.34;130466;1261;106429;-73
2024/04/18 06:54:29;;;;;;;;;;;;;;;5.43;79.79;99548.48;130301;1257;107894;-72
2024/04/18 06:57:33;;;;;;;;;;;;;;;5.41;80.00;99548.29;130388;1262;107929;-73
2024/04/18 07:00:38;;;;;;;;;;;;;;;5.49;80.37;99555.01;130345;1262;108364;-74
2024/04/18 07:03:42;;;;;;;;;;;;;;;5.76;80.24;99556.80;130248;1258;108704;-73
2024/04/18 07:07:08;;;;;;;;;;;;;;;5.91;78.81;99559.15;130353;1257;107101;-74
2024/04/18 07:10:15;;;;;;;;;;;;;;;6.05;78.58;99562.11;130433;1262;108711;-73
2024/04/18 07:13:30;;;;;;;;;;;;;;;6.21;77.77;99567.20;130398;1261;108841;-73
2024/04/18 07:16:34;;;;;;;;;;;;;;;6.31;76.92;99560.52;130420;1262;107906;-73
2024/04/18 07:19:58;;;;;;;;;;;;;;;6.53;77.47;99565.70;130438;1262;106247;-73
2024/04/18 07:23:25;;;;;;;;;;;;;;;6.67;76.94;99571.21;130430;1258;108187;-73
2024/04/18 07:26:28;;;;;;;;;;;;;;;6.69;76.54;99574.02;130357;1257;108121;-73
2024/04/18 07:29:32;;;;;;;;;;;;;;;6.72;76.37;99577.34;130360;1262;107745;-74
2024/04/18 07:32:36;;;;;;;;;;;;;;;6.86;76.40;99577.20;130280;1262;106597;-74
2024/04/18 07:35:39;;;;;;;;;;;;;;;6.82;74.94;99578.34;130353;1258;108228;-73
2024/04/18 07:38:43;;;;;;;;;;;;;;;6.63;74.75;99584.71;130334;1262;108538;-73
2024/04/18 07:41:47;;;;;;;;;;;;;;;6.49;75.34;99585.70;130291;1262;107125;-73
2024/04/18 07:44:51;;;;;;;;;;;;;;;6.36;75.04;99590.21;130363;1257;108699;-72
2024/04/18 07:47:55;;;;;;;;;;;;;;;6.30;75.45;99589.36;130448;1262;108854;-73
2024/04/18 07:50:58;;;;;;;;;;;;;;;6.28;75.85;99588.45;130353;1257;108562;-74
2024/04/18 07:54:02;;;;;;;;;;;;;;;6.41;75.96;99589.28;130394;1262;108383;-73
2024/04/18 07:57:06;;;;;;;;;;;;;;;6.45;74.84;99593.79;130387;1262;107645;-73
2024/04/18 08:00:11;;;;;;;;;;;;;;;6.45;74.71;99595.36;130284;1263;108477;-72
2024/04/18 08:03:17;;;;;;;;;;;;;;;6.53;74.85;99596.94;130358;1263;106748;-73
2024/04/18 08:06:21;;;;;;;;;;;;;;;6.75;75.30;99600.23;130308;1260;108728;-74
2024/04/18 08:09:25;;;;;;;;;;;;;;;6.87;74.71;99599.44;130313;1256;108964;-73
2024/04/18 08:12:29;;;;;;;;;;;;;;;6.82;73.83;99601.50;130452;1256;106625;-73
2024/04/18 08:15:39;;;;;;;;;;;;;;;6.69;74.65;99604.58;130487;1261;107634;-73
2024/04/18 08:18:42;;;;;;;;;;;;;;;6.74;73.63;99608.81;130485;1262;107295;-73
2024/04/18 08:21:46;;;;;;;;;;;;;;;6.67;72.60;99610.27;130366;1262;107471;-73
2024/04/18 08:24:50;;;;;;;;;;;;;;;6.71;72.19;99610.61;130259;1262;106157;-73
2024/04/18 08:27:54;;;;;;;;;;;;;;;6.70;71.86;99610.39;130083;1260;107595;-72
2024/04/18 08:30:57;;;;;;;;;;;;;;;6.90;72.63;99608.84;130312;1258;107722;-73
2024/04/18 08:34:01;;;;;;;;;;;;;;;7.04;70.75;99610.55;130424;1259;107907;-73
2024/04/18 08:37:05;;;;;;;;;;;;;;;7.18;71.41;99607.96;130614;1260;108665;-74
2024/04/18 08:40:10;;;;;;;;;;;;;;;7.31;71.27;99607.77;130380;1262;106591;-73
2024/04/18 08:43:14;;;;;;;;;;;;;;;7.28;69.86;99606.46;130410;1260;106533;-73
2024/04/18 08:46:18;;;;;;;;;;;;;;;7.37;69.89;99600.70;130326;1262;107670;-73
2024/04/18 08:49:22;;;;;;;;;;;;;;;7.54;69.53;99599.59;130389;1258;106141;-74
2024/04/18 08:52:28;;;;;;;;;;;;;;;7.65;68.29;99596.81;130436;1262;106698;-74
2024/04/18 08:55:32;;;;;;;;;;;;;;;7.83;68.56;99597.21;130344;1259;108437;-74
2024/04/18 08:58:36;;;;;;;;;;;;;;;7.77;67.48;99606.13;130486;1261;106902;-74
2024/04/18 09:01:40;;;;;;;;;;;;;;;7.56;66.16;99609.59;130330;1260;107742;-74
2024/04/18 09:04:44;;;;;;;;;;;;;;;7.55;68.52;99606.00;130378;1262;106383;-73
2024/04/18 09:07:48;;;;;;;;;;;;;;;7.65;69.76;99602.73;130412;1260;108039;-74
2024/04/18 09:10:52;;;;;;;;;;;;;;;7.85;68.09;99600.90;130310;1258;108613;-73
2024/04/18 09:13:56;;;;;;;;;;;;;;;8.14;66.30;99600.15;130290;1262;106836;-73
2024/04/18 09:17:00;;;;;;;;;;;;;;;7.96;63.46;99605.91;130308;1257;107698;-74
2024/04/18 09:20:05;;;;;;;;;;;;;;;7.79;64.43;99607.67;130315;1262;106541;-73
2024/04/18 09:23:09;;;;;;;;;;;;;;;7.73;66.44;99603.16;130395;1257;106628;-73
2024/04/18 09:26:13;;;;;;;;;;;;;;;7.73;64.38;99603.00;130438;1257;107722;-73
2024/04/18 09:29:16;;;;;;;;;;;;;;;7.58;63.72;99601.42;130267;1262;106549;-73
2024/04/18 09:32:21;;;;;;;;;;;;;;;7.44;62.99;99606.45;130311;1262;107141;-73
2024/04/18 09:35:26;;;;;;;;;;;;;;;7.40;63.04;99601.54;130363;1262;106975;-74
2024/04/18 09:38:31;;;;;;;;;;;;;;;7.41;64.19;99605.73;130327;1260;108525;-73
2024/04/18 09:41:37;;;;;;;;;;;;;;;7.42;63.35;99601.02;130402;1262;106510;-73
2024/04/18 09:44:43;;;;;;;;;;;;;;;7.44;65.19;99603.86;130265;1262;106683;-73
2024/04/18 09:47:47;;;;;;;;;;;;;;;7.45;63.76;99605.40;130420;1258;106246;-74
2024/04/18 09:50:51;;;;;;;;;;;;;;;7.42;63.99;99604.02;130373;1263;108845;-74
2024/04/18 09:53:56;;;;;;;;;;;;;;;7.53;65.84;99599.09;130301;1262;107023;-73
2024/04/18 09:57:01;;;;;;;;;;;;;;;7.60;64.53;99598.04;130344;1261;108542;-73
2024/04/18 10:00:06;;;;;;;;;;;;;;;7.72;65.14;99593.70;130306;1262;108793;-73
2024/04/18 10:03:15;;;;;;;;;;;;;;;7.89;64.23;99596.26;130328;1262;106667;-73
2024/04/18 10:06:21;;;;;;;;;;;;;;;8.04;63.71;99593.56;130291;1259;108594;-73
2024/04/18 10:09:27;;;;;;;;;;;;;;;8.17;63.85;99586.55;130276;1262;106594;-74
2024/04/18 10:12:34;;;;;;;;;;;;;;;8.31;63.47;99584.44;130293;1262;108833;-73
2024/04/18 10:15:38;;;;;;;;;;;;;;;8.42;63.67;99582.84;130332;1262;108691;-73
2024/04/18 10:18:44;;;;;;;;;;;;;;;8.60;63.89;99580.11;130334;1262;108683;-73
2024/04/18 10:21:53;;;;;;;;;;;;;;;8.81;62.19;99577.46;130298;1260;108046;-73
2024/04/18 10:24:56;;;;;;;;;;;;;;;8.85;62.25;99579.33;130276;1262;107426;-74
2024/04/18 10:28:00;;;;;;;;;;;;;;;8.71;63.19;99576.02;130297;1260;107179;-72
2024/04/18 10:31:05;;;;;;;;;;;;;;;8.45;62.43;99577.94;130351;1259;105952;-73
2024/04/18 10:34:09;;;;;;;;;;;;;;;8.18;62.37;99586.14;130288;1260;106682;-74
2024/04/18 10:37:19;;;;;;;;;;;;;;;7.97;63.02;99583.96;130286;1259;106285;-73
2024/04/18 10:40:23;;;;;;;;;;;;;;;7.92;64.15;99584.16;130254;1263;107402;-73
2024/04/18 10:43:27;;;;;;;;;;;;;;;8.05;64.49;99581.77;130302;1259;106924;-73
2024/04/18 10:46:31;;;;;;;;;;;;;;;8.30;63.48;99574.13;130327;1259;107706;-73
2024/04/18 10:49:35;;;;;;;;;;;;;;;8.41;62.41;99579.08;130293;1262;106491;-73
2024/04/18 10:52:40;;;;;;;;;;;;;;;8.41;61.14;99580.52;130292;1260;107015;-73
2024/04/18 10:55:44;;;;;;;;;;;;;;;8.44;60.88;99584.66;130263;1262;107813;-74
2024/04/18 10:58:47;;;;;;;;;;;;;;;8.49;60.55;99581.23;130301;1261;106165;-74
2024/04/18 11:01:51;;;;;;;;;;;;;;;8.84;62.20;99572.39;130291;1262;106659;-73
2024/04/18 11:04:55;;;;;;;;;;;;;;;9.00;61.66;99571.80;130301;1259;106828;-73
2024/04/18 11:07:58;;;;;;;;;;;;;;;9.09;61.70;99579.23;130283;1262;106575;-74
2024/04/18 11:11:02;;;;;;;;;;;;;;;9.02;59.41;99578.70;130298;1262;106381;-73
2024/04/18 11:14:06;;;;;;;;;;;;;;;8.89;59.77;99581.92;130301;1262;107464;-74
2024/04/18 11:17:10;;;;;;;;;;;;;;;8.72;59.33;99588.19;130315;1262;106876;-74
2024/04/18 11:20:13;;;;;;;;;;;;;;;8.46;57.91;99583.52;130315;1262;106686;-74
2024/04/18 11:23:17;;;;;;;;;;;;;;;8.21;58.44;99583.23;130302;1258;106241;-74
2024/04/18 11:26:21;;;;;;;;;;;;;;;8.11;59.87;99589.52;130351;1260;107838;-73
2024/04/18 11:29:27;;;;;;;;;;;;;;;8.01;59.08;99586.98;130323;1259;107361;-74
2024/04/18 11:32:31;;;;;;;;;;;;;;;7.92;59.66;99581.33;130404;1262;108613;-73
2024/04/18 11:35:35;;;;;;;;;;;;;;;7.95;59.84;99579.63;130323;1262;105340;-73
2024/04/18 11:38:47;;;;;;;;;;;;;;;8.27;60.73;99568.53;130309;1262;107168;-73
2024/04/18 11:41:51;;;;;;;;;;;;;;;8.73;57.91;99569.64;130309;1262;108712;-73
2024/04/18 11:44:54;;;;;;;;;;;;;;;9.00;55.98;99572.30;130269;1259;108784;-76
2024/04/18 11:47:58;;;;;;;;;;;;;;;9.10;53.61;99578.20;130115;1262;107857;-74
2024/04/18 11:51:02;;;;;;;;;;;;;;;9.01;54.80;99579.70;130305;1260;106826;-73
2024/04/18 11:54:06;;;;;;;;;;;;;;;9.17;55.34;99576.27;130391;1258;107238;-73
2024/04/18 11:57:13;;;;;;;;;;;;;;;9.47;56.65;99574.03;130403;1262;108749;-77
2024/04/18 12:00:17;;;;;;;;;;;;;;;9.63;54.94;99582.02;130364;1260;106226;-74
2024/04/18 12:03:40;;;;;;;;;;;;;;;9.77;55.58;99577.88;130349;1262;106668;-73
2024/04/18 12:07:03;;;;;;;;;;;;;;;10.08;55.82;99574.04;130379;1262;107199;-73
2024/04/18 12:10:07;;;;;;;;;;;;;;;10.32;53.21;99573.59;130406;1262;106885;-74
2024/04/18 12:13:11;;;;;;;;;;;;;;;10.39;53.36;99569.41;130313;1262;106618;-74
2024/04/18 12:16:30;;;;;;;;;;;;;;;10.20;52.19;99567.88;130409;1260;107727;-73
2024/04/18 12:19:46;;;;;;;;;;;;;;;9.93;51.60;99578.99;130314;1262;108866;-74
2024/04/18 12:23:08;;;;;;;;;;;;;;;9.86;51.90;99575.89;130362;1262;107711;-74
2024/04/18 12:26:12;;;;;;;;;;;;;;;9.89;52.83;99572.73;130325;1262;107617;-73
2024/04/18 12:29:25;;;;;;;;;;;;;;;9.65;51.18;99576.48;130391;1262;107633;-74
2024/04/18 12:32:34;;;;;;;;;;;;;;;9.30;51.12;99585.00;130413;1262;107267;-74
2024/04/18 12:35:38;;;;;;;;;;;;;;;8.92;51.88;99579.52;130416;1262;106584;-74
2024/04/18 12:38:44;;;;;;;;;;;;;;;8.89;51.32;99577.52;130312;1262;106682;-74
2024/04/18 12:41:48;;;;;;;;;;;;;;;9.04;52.32;99573.73;131125;1262;107295;-76
2024/04/18 12:44:53;;;;;;;;;;;;;;;9.37;52.96;99569.34;130624;1262;106370;-74
2024/04/18 12:48:00;;;;;;;;;;;;;;;9.72;52.46;99571.89;130901;1262;106555;-78
2024/04/18 12:51:05;;;;;;;;;;;;;;;9.96;51.86;99569.94;130493;1262;107588;-76
2024/04/18 12:54:18;;;;;;;;;;;;;;;10.17;50.95;99566.60;130344;1262;107480;-76
2024/04/18 12:57:24;;;;;;;;;;;;;;;10.24;52.36;99566.48;130260;1259;106681;-75
2024/04/18 13:00:40;;;;;;;;;;;;;;;10.38;52.13;99562.25;130325;1261;107621;-74
2024/04/18 13:03:44;;;;;;;;;;;;;;;10.31;51.01;99571.31;130240;1262;107845;-75
2024/04/18 13:07:07;;;;;;;;;;;;;;;10.12;50.90;99566.50;130192;1262;106398;-75
2024/04/18 13:10:11;;;;;;;;;;;;;;;10.17;51.28;99564.48;130281;1263;106583;-76
2024/04/18 13:13:22;;;;;;;;;;;;;;;10.42;49.99;99579.45;130218;1264;107118;-73
2024/04/18 13:16:44;;;;;;;;;;;;;;;10.33;52.31;99586.95;130236;1271;106411;-77
2024/04/18 13:19:47;;;;;;;;;;;;;;;9.87;53.61;99598.48;130242;1263;106442;-75
2024/04/18 13:22:51;;;;;;;;;;;;;;;9.23;54.42;99607.58;130301;1262;108842;-73
2024/04/18 13:25:55;;;;;;;;;;;;;;;8.70;55.22;99612.58;130346;1259;107636;-75
2024/04/18 13:28:59;;;;;;;;;;;;;;;8.49;55.60;99608.23;130300;1260;107698;-73
2024/04/18 13:32:02;;;;;;;;;;;;;;;8.46;55.57;99608.70;130331;1271;106476;-73
2024/04/18 13:35:07;;;;;;;;;;;;;;;8.33;55.58;99606.80;130315;1263;107596;-73
2024/04/18 13:38:10;;;;;;;;;;;;;;;8.31;55.88;99610.39;130387;1262;107483;-73
2024/04/18 13:41:30;;;;;;;;;;;;;;;8.36;55.97;99603.35;130316;1262;107728;-73
2024/04/18 13:44:34;;;;;;;;;;;;;;;8.44;55.80;99609.11;130315;1262;107700;-73
2024/04/18 13:47:58;;;;;;;;;;;;;;;8.49;55.88;99610.02;130371;1271;107900;-75
2024/04/18 13:51:18;;;;;;;;;;;;;;;8.52;55.59;99614.27;130353;1266;105903;-73
2024/04/18 13:54:23;;;;;;;;;;;;;;;8.45;54.09;99613.78;130256;1262;107810;-75
2024/04/18 13:57:30;;;;;;;;;;;;;;;8.46;54.64;99604.65;130299;1266;107817;-74
2024/04/18 14:00:54;;;;;;;;;;;;;;;8.59;54.52;99599.92;130331;1263;107955;-75
2024/04/18 14:04:05;;;;;;;;;;;;;;;8.68;53.90;99594.11;130297;1262;108797;-74
2024/04/18 14:07:17;;;;;;;;;;;;;;;8.79;54.03;99592.05;130347;1263;107424;-75
2024/04/18 14:10:23;;;;;;;;;;;;;;;8.97;53.33;99585.27;130374;1262;108610;-75
2024/04/18 14:13:46;;;;;;;;;;;;;;;9.11;53.10;99590.50;130327;1262;106329;-73
2024/04/18 14:20:46;;;;;;;;;;;;;;;9.10;54.45;99596.89;130431;1271;106286;-74
2024/04/18 14:23:50;;;;;;;;;;;;;;;8.90;54.72;99599.09;130661;1263;107669;-76
2024/04/18 14:26:54;;;;;;;;;;;;;;;8.73;54.84;99604.56;130615;1262;108429;-73
2024/04/18 14:30:00;;;;;;;;;;;;;;;8.62;54.49;99603.33;130534;1262;108828;-74
2024/04/18 14:33:09;;;;;;;;;;;;;;;8.55;54.28;99602.98;130400;1262;107812;-74
2024/04/18 14:36:13;;;;;;;;;;;;;;;8.60;54.90;99601.55;130480;1258;106821;-73
2024/04/18 14:39:17;;;;;;;;;;;;;;;8.70;55.10;99607.83;130314;1262;107673;-79
2024/04/18 14:42:20;;;;;;;;;;;;;;;8.83;55.12;99601.39;131456;1262;107906;-73
2024/04/18 14:45:24;;;;;;;;;;;;;;;8.85;54.91;99598.70;130540;1260;107588;-80
2024/04/18 14:48:28;;;;;;;;;;;;;;;8.75;54.67;99605.80;130239;1262;139420;-77
2024/04/18 14:51:32;;;;;;;;;;;;;;;8.66;55.30;99613.27;130285;1260;107302;-74
2024/04/18 14:54:55;;;;;;;;;;;;;;;8.52;55.41;99616.41;130281;1262;108684;-74
2024/04/18 14:58:08;;;;;;;;;;;;;;;8.35;55.75;99609.05;130379;1266;108918;-75
2024/04/18 15:01:25;;;;;;;;;;;;;;;8.30;55.67;99614.19;130188;1263;108195;-74
2024/04/18 15:04:28;;;;;;;;;;;;;;;8.18;55.98;99618.05;130001;1265;107204;-75
2024/04/18 15:07:51;;;;;;;;;;;;;;;8.16;56.37;99619.48;130229;1260;107681;-73
2024/04/18 15:10:55;;;;;;;;;;;;;;;8.16;56.03;99621.04;130344;1271;107671;-73
2024/04/18 15:13:58;;;;;;;;;;;;;;;8.17;55.71;99627.55;130368;1262;107680;-74
2024/04/18 15:17:02;;;;;;;;;;;;;;;8.13;55.46;99625.92;130419;1263;106207;-73
2024/04/18 15:20:08;;;;;;;;;;;;;;;8.13;54.92;99632.56;130436;1258;106298;-75
2024/04/18 15:23:14;;;;;;;;;;;;;;;8.03;54.67;99637.55;130266;1262;107685;-79
2024/04/18 15:26:19;;;;;;;;;;;;;;;7.96;54.45;99642.88;130421;1262;107660;-76
2024/04/18 15:29:23;;;;;;;;;;;;;;;7.92;54.80;99634.26;130350;1259;106440;-75
2024/04/18 15:32:49;;;;;;;;;;;;;;;7.96;55.30;99635.16;130172;1263;108438;-75
2024/04/18 15:35:59;;;;;;;;;;;;;;;8.02;55.06;99638.25;130353;1262;107424;-75
2024/04/18 15:39:02;;;;;;;;;;;;;;;8.00;55.27;99629.56;130411;1262;106800;-74
2024/04/18 15:42:20;;;;;;;;;;;;;;;8.01;55.63;99627.84;130502;1263;106793;-75
2024/04/18 15:45:24;;;;;;;;;;;;;;;8.04;55.93;99629.33;130337;1262;108359;-78
2024/04/18 15:48:27;;;;;;;;;;;;;;;8.11;56.06;99634.48;130194;1266;107471;-76
2024/04/18 15:51:31;;;;;;;;;;;;;;;8.22;56.49;99634.63;130351;1273;108402;-74
2024/04/18 15:54:44;;;;;;;;;;;;;;;8.28;56.61;99633.39;130449;1263;108435;-73
2024/04/18 15:57:48;;;;;;;;;;;;;;;8.28;56.78;99632.33;130350;1263;108683;-74
2024/04/18 16:00:51;;;;;;;;;;;;;;;8.25;56.93;99635.02;130345;1261;107133;-72
2024/04/18 16:04:10;;;;;;;;;;;;;;;8.23;57.35;99638.27;130244;1265;108575;-73
2024/04/18 16:07:33;;;;;;;;;;;;;;;8.19;57.57;99635.67;130232;1262;108773;-72
2024/04/18 16:10:56;;;;;;;;;;;;;;;8.15;57.57;99635.35;130340;1263;106958;-73